International Virtual Aviation Organisation

Eastern Europe and Northern Asia MCD

 
UNBB 121100Z 24003MPS CAVOK 14/M06 Q1029 R24/CLRD66 NOSIG RMK QFE749
QNH:(hPa/inHg/mmHg)1029 / 30.39 / 772
QFE:(hPa/inHg/mmHg)998 / 29.47 / 749
Temperature14
Dew Point-6
Visibility> 10000
WeatherCAVOK
Cloud Cover
Transition Height700 m./3200 ft.
Transition LevelFL40
SQUAWK